Time;durP1;ratioP1;P1;durP2;ratioP2;P2;SDS_P1;SDS_P2;PMS_P1;PMS_P2;Temp;Humidity;BMP_temperature;BMP_pressure;BME280_temperature;BME280_humidity;BME280_pressure;Samples;Min_cycle;Max_cycle;Signal;HPM_P1;HPM_P2
2023/11/16 00:02:24;;;;;;;14.07;1.55;;;9.90;99.90;;;;;;5022478;28;20394;-84
2023/11/16 00:04:49;;;;;;;7.80;1.60;;;9.90;99.90;;;;;;5021376;28;20026;-83
2023/11/16 00:07:15;;;;;;;6.57;1.77;;;9.90;99.90;;;;;;5023273;28;20022;-84
2023/11/16 00:09:41;;;;;;;8.53;1.00;;;9.90;99.90;;;;;;5020489;28;20089;-84
2023/11/16 00:12:07;;;;;;;11.38;1.92;;;9.90;99.90;;;;;;5024368;28;20033;-83
2023/11/16 00:14:34;;;;;;;13.47;2.07;;;9.90;99.90;;;;;;5020792;28;20589;-83
2023/11/16 00:17:00;;;;;;;15.93;2.90;;;9.90;99.90;;;;;;5022993;28;20033;-83
2023/11/16 00:19:26;;;;;;;11.90;1.80;;;9.90;99.90;;;;;;5021764;28;20021;-84
2023/11/16 00:21:52;;;;;;;9.20;1.83;;;9.90;99.90;;;;;;5021343;28;20018;-84
2023/11/16 00:24:19;;;;;;;9.50;1.33;;;9.90;99.90;;;;;;5023843;28;20056;-84
2023/11/16 00:26:45;;;;;;;7.53;1.37;;;9.90;99.90;;;;;;5020528;28;20049;-84
2023/11/16 00:29:12;;;;;;;9.53;1.17;;;9.90;99.90;;;;;;5022760;28;20045;-83
2023/11/16 00:31:38;;;;;;;9.17;1.47;;;9.90;99.90;;;;;;5020495;28;20061;-84
2023/11/16 00:34:04;;;;;;;9.27;1.37;;;9.90;99.90;;;;;;5022433;28;20026;-83
2023/11/16 00:36:31;;;;;;;13.23;1.93;;;9.90;99.90;;;;;;5021582;28;20022;-84
2023/11/16 00:38:58;;;;;;;9.63;1.50;;;9.90;99.90;;;;;;5021144;28;20041;-83
2023/11/16 00:41:27;;;;;;;12.10;1.77;;;9.90;99.90;;;;;;5006669;28;20042;-84
2023/11/16 00:43:53;;;;;;;8.23;1.50;;;9.90;99.90;;;;;;5020503;28;20044;-84
2023/11/16 00:46:21;;;;;;;9.57;1.27;;;9.90;99.90;;;;;;5024087;28;20049;-84
2023/11/16 00:48:47;;;;;;;8.43;1.00;;;9.90;99.90;;;;;;5020741;28;20085;-84
2023/11/16 00:51:13;;;;;;;6.07;1.00;;;9.90;99.90;;;;;;5022519;28;20088;-85
2023/11/16 00:53:42;;;;;;;11.70;1.80;;;10.00;99.90;;;;;;5021398;28;20056;-83
2023/11/16 00:56:09;;;;;;;9.27;1.33;;;9.90;99.90;;;;;;5022369;28;20025;-84
2023/11/16 00:58:36;;;;;;;10.27;1.70;;;10.00;99.90;;;;;;5022449;28;20018;-84
2023/11/16 01:01:06;;;;;;;12.38;1.08;;;10.00;99.90;;;;;;5019942;28;20026;-84
2023/11/16 01:03:33;;;;;;;6.27;1.33;;;9.90;99.90;;;;;;5021883;28;20038;-84
2023/11/16 01:05:58;;;;;;;11.77;1.60;;;10.00;99.90;;;;;;5019744;28;20025;-83
2023/11/16 01:08:26;;;;;;;11.70;1.77;;;9.90;99.90;;;;;;5022170;28;20026;-84
2023/11/16 01:10:52;;;;;;;9.73;1.75;;;9.90;99.90;;;;;;5022570;28;20056;-83
2023/11/16 01:13:23;;;;;;;10.67;1.30;;;9.90;99.90;;;;;;5020514;28;20022;-84
2023/11/16 01:15:51;;;;;;;15.07;2.03;;;9.90;99.90;;;;;;5021833;28;20647;-84
2023/11/16 01:18:17;;;;;;;11.07;1.73;;;9.70;99.90;;;;;;5019446;28;20018;-83
2023/11/16 01:20:43;;;;;;;11.97;1.67;;;9.70;99.90;;;;;;5021761;28;20042;-83
2023/11/16 01:23:12;;;;;;;16.97;3.27;;;9.60;99.90;;;;;;5019880;28;20038;-83
2023/11/16 01:25:44;;;;;;;12.70;1.97;;;9.60;99.90;;;;;;5022939;28;20133;-83
2023/11/16 01:28:15;;;;;;;12.63;1.67;;;9.50;99.90;;;;;;5021021;28;20029;-82
2023/11/16 01:30:41;;;;;;;9.63;1.80;;;9.40;99.90;;;;;;5020938;28;20032;-83
2023/11/16 01:33:08;;;;;;;14.03;2.70;;;9.40;99.90;;;;;;5021845;28;20022;-83
2023/11/16 01:35:39;;;;;;;11.57;2.67;;;9.30;99.90;;;;;;5019524;28;20103;-83
2023/11/16 01:38:08;;;;;;;15.50;2.47;;;9.30;99.90;;;;;;5021524;28;20478;-83
2023/11/16 01:40:40;;;;;;;9.20;1.80;;;9.20;99.90;;;;;;5020257;28;20053;-83
2023/11/16 01:43:06;;;;;;;9.63;1.77;;;9.20;99.90;;;;;;5020722;28;20101;-83
2023/11/16 01:45:34;;;;;;;7.83;1.93;;;9.10;99.90;;;;;;5021405;28;20088;-83
2023/11/16 01:48:06;;;;;;;10.63;2.27;;;9.10;99.90;;;;;;5019416;28;20459;-83
2023/11/16 01:50:34;;;;;;;10.23;1.77;;;9.10;99.90;;;;;;5023960;28;20065;-83
2023/11/16 01:53:09;;;;;;;14.33;3.03;;;9.10;99.90;;;;;;5024835;28;20113;-83
2023/11/16 01:55:38;;;;;;;8.47;1.77;;;9.00;99.90;;;;;;5025580;28;20374;-83
2023/11/16 01:58:05;;;;;;;12.07;1.73;;;9.00;99.90;;;;;;5024762;28;20033;-82
2023/11/16 02:00:36;;;;;;;10.93;2.13;;;9.00;99.90;;;;;;5023582;28;20076;-83
2023/11/16 02:03:05;;;;;;;15.13;2.10;;;9.00;99.90;;;;;;5025497;28;20052;-83
2023/11/16 02:05:35;;;;;;;11.60;2.73;;;9.00;99.90;;;;;;5022936;28;20030;-82
2023/11/16 02:08:04;;;;;;;14.17;2.50;;;9.00;99.90;;;;;;5025276;28;20041;-83
2023/11/16 02:10:30;;;;;;;14.13;2.40;;;9.00;99.90;;;;;;5023103;28;20045;-83
2023/11/16 02:13:00;;;;;;;9.70;2.40;;;9.00;99.90;;;;;;5024919;28;20018;-82
2023/11/16 02:15:31;;;;;;;12.53;2.27;;;9.00;99.90;;;;;;5024666;28;20109;-83
2023/11/16 02:18:01;;;;;;;7.83;2.10;;;9.00;99.90;;;;;;5024447;28;20113;-83
2023/11/16 02:20:29;;;;;;;8.47;2.23;;;9.00;99.90;;;;;;5025037;28;20044;-83
2023/11/16 02:22:55;;;;;;;7.50;1.70;;;9.00;99.90;;;;;;5024274;28;20105;-83
2023/11/16 02:25:26;;;;;;;14.40;2.30;;;9.00;99.90;;;;;;5025082;28;20052;-84
2023/11/16 02:27:53;;;;;;;11.33;2.27;;;8.90;99.90;;;;;;5023646;28;20046;-84
2023/11/16 02:30:20;;;;;;;9.13;2.07;;;9.00;99.90;;;;;;5023865;28;20117;-83
2023/11/16 02:32:45;;;;;;;13.90;2.20;;;9.00;99.90;;;;;;5024740;28;20022;-84
2023/11/16 02:35:14;;;;;;;6.73;2.03;;;9.00;99.90;;;;;;5022343;28;20018;-84
2023/11/16 02:37:40;;;;;;;15.87;2.43;;;9.00;99.90;;;;;;5026131;28;20033;-84
2023/11/16 02:40:07;;;;;;;13.43;3.00;;;9.00;99.90;;;;;;5022641;28;20029;-84
2023/11/16 02:42:34;;;;;;;13.67;3.30;;;9.00;99.90;;;;;;5024624;28;20398;-84
2023/11/16 02:45:00;;;;;;;15.30;2.50;;;9.00;99.90;;;;;;5023512;28;20117;-84
2023/11/16 02:47:30;;;;;;;12.57;2.90;;;9.00;99.90;;;;;;5023594;28;20383;-84
2023/11/16 02:49:56;;;;;;;9.10;2.43;;;9.00;99.90;;;;;;5024308;28;20033;-83
2023/11/16 02:52:22;;;;;;;9.67;2.40;;;9.00;99.90;;;;;;5022224;28;20022;-84
2023/11/16 02:54:48;;;;;;;15.23;2.63;;;9.00;99.90;;;;;;5024488;28;20054;-84
2023/11/16 02:57:14;;;;;;;8.83;2.27;;;9.00;99.90;;;;;;5022035;28;20022;-84
2023/11/16 02:59:40;;;;;;;23.17;2.77;;;9.00;99.90;;;;;;5024248;28;20313;-84
2023/11/16 03:02:06;;;;;;;5.33;2.47;;;9.00;99.90;;;;;;5022875;28;20052;-84
2023/11/16 03:04:33;;;;;;;11.37;2.70;;;9.00;99.90;;;;;;5023273;28;20466;-84
2023/11/16 03:06:59;;;;;;;11.47;2.70;;;9.00;99.90;;;;;;5024457;28;20034;-84
2023/11/16 03:09:24;;;;;;;6.53;2.10;;;9.10;99.90;;;;;;5022245;28;20029;-84
2023/11/16 03:11:50;;;;;;;10.33;3.03;;;9.00;99.90;;;;;;5024027;28;20018;-84
2023/11/16 03:14:16;;;;;;;7.80;2.07;;;9.00;99.90;;;;;;5021821;28;20051;-84
2023/11/16 03:16:46;;;;;;;6.63;1.83;;;9.00;99.90;;;;;;5024337;28;20427;-83
2023/11/16 03:19:11;;;;;;;9.40;2.07;;;9.00;99.90;;;;;;5022666;28;20090;-83
2023/11/16 03:21:37;;;;;;;7.90;2.00;;;9.00;99.90;;;;;;5023231;28;20061;-83
2023/11/16 03:24:03;;;;;;;8.83;2.37;;;9.00;99.90;;;;;;5023817;28;20035;-83
2023/11/16 03:26:29;;;;;;;11.43;2.90;;;9.00;99.90;;;;;;5021616;28;20026;-83
2023/11/16 03:28:57;;;;;;;7.97;2.47;;;9.00;99.90;;;;;;5023405;28;20425;-83
2023/11/16 03:31:23;;;;;;;9.17;2.30;;;9.00;99.90;;;;;;5023191;28;20108;-83
2023/11/16 03:33:49;;;;;;;8.93;2.50;;;9.00;99.90;;;;;;5023869;28;20022;-83
2023/11/16 03:36:15;;;;;;;5.53;2.70;;;8.90;99.90;;;;;;5022299;28;20029;-83
2023/11/16 03:38:40;;;;;;;11.27;3.40;;;9.00;99.90;;;;;;5023017;28;20064;-83
2023/11/16 03:41:07;;;;;;;15.67;4.10;;;9.00;99.90;;;;;;5023253;28;20029;-83
2023/11/16 03:43:33;;;;;;;7.43;3.23;;;8.90;99.90;;;;;;5021123;28;20042;-83
2023/11/16 03:45:59;;;;;;;7.57;3.47;;;8.90;99.90;;;;;;5023580;28;20026;-83
2023/11/16 03:48:24;;;;;;;10.47;4.00;;;9.00;99.90;;;;;;5022697;28;20045;-83
2023/11/16 03:50:50;;;;;;;15.93;4.77;;;8.90;99.90;;;;;;5023382;28;20030;-83
2023/11/16 03:53:16;;;;;;;17.17;5.03;;;8.90;99.90;;;;;;5021662;28;20044;-82
2023/11/16 03:55:41;;;;;;;12.40;5.43;;;8.90;99.90;;;;;;5022581;28;20032;-83
2023/11/16 03:58:07;;;;;;;17.13;5.13;;;8.90;99.90;;;;;;5022923;28;20022;-82
2023/11/16 04:00:33;;;;;;;12.37;4.70;;;8.90;99.90;;;;;;5021652;28;20029;-83
2023/11/16 04:03:00;;;;;;;14.10;6.00;;;8.90;99.90;;;;;;5023191;28;20061;-82
2023/11/16 04:05:26;;;;;;;11.27;4.70;;;8.90;99.90;;;;;;5021515;28;20045;-84
2023/11/16 04:07:55;;;;;;;16.07;4.63;;;8.90;99.90;;;;;;5023172;28;20014;-85
2023/11/16 04:10:21;;;;;;;11.43;5.30;;;8.80;99.90;;;;;;5022532;28;20013;-83
2023/11/16 04:12:47;;;;;;;15.33;5.40;;;8.80;99.90;;;;;;5022637;28;20394;-83
2023/11/16 04:15:13;;;;;;;11.43;4.80;;;8.90;99.90;;;;;;5022528;28;20025;-83
2023/11/16 04:17:46;;;;;;;9.07;4.63;;;8.80;99.90;;;;;;5021133;28;20113;-83
2023/11/16 04:20:12;;;;;;;14.83;5.00;;;8.90;99.90;;;;;;5022789;28;20029;-84
2023/11/16 04:22:39;;;;;;;12.93;4.57;;;8.90;99.90;;;;;;5021981;28;20030;-84
2023/11/16 04:25:08;;;;;;;11.90;5.07;;;8.90;99.90;;;;;;5022541;28;20057;-84
2023/11/16 04:27:34;;;;;;;13.17;5.57;;;8.80;99.90;;;;;;5020404;28;20014;-84
2023/11/16 04:30:00;;;;;;;12.77;4.73;;;8.80;99.90;;;;;;5022095;28;20072;-84
2023/11/16 04:32:27;;;;;;;16.37;5.40;;;8.80;99.90;;;;;;5022264;28;20389;-83
2023/11/16 04:34:53;;;;;;;17.93;6.27;;;8.80;99.90;;;;;;5020633;28;20018;-84
2023/11/16 04:37:19;;;;;;;17.60;5.50;;;8.80;99.90;;;;;;5024149;28;20022;-84
2023/11/16 04:39:45;;;;;;;15.57;5.80;;;8.70;99.90;;;;;;5020183;28;20034;-84
2023/11/16 04:42:10;;;;;;;14.13;5.30;;;8.70;99.90;;;;;;5022343;28;20114;-84
2023/11/16 04:44:36;;;;;;;19.73;6.50;;;8.70;99.90;;;;;;5020195;28;20022;-83
2023/11/16 04:47:02;;;;;;;12.43;5.37;;;8.80;99.90;;;;;;5022415;28;20527;-84
2023/11/16 04:49:28;;;;;;;17.00;5.43;;;8.70;99.90;;;;;;5021821;28;20049;-84
2023/11/16 04:51:53;;;;;;;19.03;5.30;;;8.70;99.90;;;;;;5020825;28;20033;-83
2023/11/16 04:54:19;;;;;;;14.53;5.10;;;8.70;99.90;;;;;;5021947;28;20026;-83
2023/11/16 04:56:45;;;;;;;15.07;5.47;;;8.70;99.90;;;;;;5020106;28;20022;-84
2023/11/16 04:59:10;;;;;;;20.67;5.33;;;8.70;99.90;;;;;;5022244;28;20018;-83
2023/11/16 05:01:36;;;;;;;14.07;5.37;;;8.70;99.90;;;;;;5021491;28;20022;-84
2023/11/16 05:04:02;;;;;;;15.43;6.23;;;8.70;99.90;;;;;;5022118;28;20510;-84
2023/11/16 05:06:28;;;;;;;14.77;5.83;;;8.70;99.90;;;;;;5020934;28;20084;-83
2023/11/16 05:08:54;;;;;;;12.80;5.23;;;8.70;99.90;;;;;;5020546;28;20500;-84
2023/11/16 05:11:23;;;;;;;16.23;5.93;;;8.70;99.90;;;;;;5022185;28;20040;-83
2023/11/16 05:13:50;;;;;;;12.83;5.63;;;8.70;99.90;;;;;;5019674;28;20025;-82
2023/11/16 05:16:16;;;;;;;13.77;5.27;;;8.70;99.90;;;;;;5021829;28;20061;-82
2023/11/16 05:18:43;;;;;;;16.13;5.47;;;8.70;99.90;;;;;;5019827;28;20026;-82
2023/11/16 05:21:09;;;;;;;17.47;4.93;;;8.70;99.90;;;;;;5022206;28;20448;-82
2023/11/16 05:23:37;;;;;;;15.50;5.40;;;8.70;99.90;;;;;;5021604;28;20056;-83
2023/11/16 05:26:05;;;;;;;11.13;4.57;;;8.60;99.90;;;;;;5020054;28;20524;-82
2023/11/16 05:28:32;;;;;;;14.83;4.97;;;8.60;99.90;;;;;;5021268;28;20053;-83
2023/11/16 05:30:58;;;;;;;12.17;5.20;;;8.60;99.90;;;;;;5019508;28;20034;-84
2023/11/16 05:33:24;;;;;;;13.93;5.23;;;8.60;99.90;;;;;;5021963;28;20033;-83
2023/11/16 05:35:51;;;;;;;11.27;5.73;;;8.60;99.90;;;;;;5019722;28;20393;-82
2023/11/16 05:38:17;;;;;;;14.10;5.13;;;8.60;99.90;;;;;;5021589;28;20018;-82
2023/11/16 05:40:44;;;;;;;15.73;5.80;;;8.60;99.90;;;;;;5020553;28;20017;-82
2023/11/16 05:43:10;;;;;;;14.43;5.17;;;8.50;99.90;;;;;;5021916;28;20026;-81
2023/11/16 05:45:39;;;;;;;13.37;5.07;;;8.50;99.90;;;;;;5022959;28;20026;-82
2023/11/16 05:48:07;;;;;;;10.90;5.00;;;8.50;99.90;;;;;;5019391;28;20103;-82
2023/11/16 05:50:34;;;;;;;14.40;5.13;;;8.40;99.90;;;;;;5021487;28;20053;-81
2023/11/16 05:53:00;;;;;;;16.10;5.17;;;8.40;99.90;;;;;;5019058;28;20022;-81
2023/11/16 05:55:26;;;;;;;18.50;5.47;;;8.40;99.90;;;;;;5021573;28;20033;-81
2023/11/16 05:57:52;;;;;;;14.03;5.50;;;8.30;99.90;;;;;;5020720;28;20022;-86
2023/11/16 06:00:20;;;;;;;15.87;5.20;;;8.30;99.90;;;;;;5020420;28;20033;-85
2023/11/16 06:02:45;;;;;;;14.63;5.80;;;8.30;99.90;;;;;;5021424;28;20030;-82
2023/11/16 06:05:11;;;;;;;14.50;5.27;;;8.30;99.90;;;;;;5009819;28;20355;-81
2023/11/16 06:07:38;;;;;;;14.40;5.80;;;8.30;99.90;;;;;;5001158;28;20080;-82
2023/11/16 06:10:05;;;;;;;16.03;5.80;;;8.30;99.90;;;;;;5033783;28;20030;-81
2023/11/16 06:12:32;;;;;;;18.30;5.93;;;8.30;99.90;;;;;;5022566;28;20110;-81
2023/11/16 06:14:57;;;;;;;13.63;4.90;;;8.20;99.90;;;;;;5020281;28;20022;-81
2023/11/16 06:17:23;;;;;;;18.37;5.73;;;8.30;99.90;;;;;;5020367;28;20022;-81
2023/11/16 06:19:49;;;;;;;16.30;5.70;;;8.20;99.90;;;;;;5016788;28;20018;-81
2023/11/16 06:22:14;;;;;;;19.10;6.03;;;8.30;99.90;;;;;;5014830;28;20041;-81
2023/11/16 06:24:40;;;;;;;15.07;5.17;;;8.30;99.90;;;;;;5020251;28;20030;-82
2023/11/16 06:27:06;;;;;;;11.47;5.63;;;8.30;99.90;;;;;;5017505;28;20026;-81
2023/11/16 06:29:31;;;;;;;13.03;5.60;;;8.20;99.90;;;;;;5019962;28;20021;-81
2023/11/16 06:31:57;;;;;;;12.13;5.37;;;8.30;99.90;;;;;;5018860;28;20014;-80
2023/11/16 06:34:23;;;;;;;17.93;6.47;;;8.30;99.90;;;;;;5008885;28;20029;-82
2023/11/16 06:36:49;;;;;;;12.17;5.33;;;8.30;99.90;;;;;;5014335;28;20026;-81
2023/11/16 06:39:15;;;;;;;13.37;5.43;;;8.20;99.90;;;;;;5010988;28;20068;-82
2023/11/16 06:41:41;;;;;;;12.07;4.97;;;8.20;99.90;;;;;;5014533;28;20097;-81
2023/11/16 06:44:07;;;;;;;14.40;5.93;;;8.20;99.90;;;;;;5011370;28;20044;-81
2023/11/16 06:46:34;;;;;;;15.30;5.87;;;8.20;99.90;;;;;;5024247;28;20024;-81
2023/11/16 06:49:02;;;;;;;17.80;6.60;;;8.10;99.90;;;;;;5023179;28;20312;-81
2023/11/16 06:51:28;;;;;;;19.57;6.77;;;8.10;99.90;;;;;;5019216;28;20026;-82
2023/11/16 06:53:54;;;;;;;13.50;6.27;;;8.10;99.90;;;;;;5004458;28;20018;-81
2023/11/16 06:56:20;;;;;;;14.67;6.30;;;8.00;99.90;;;;;;5009586;28;20094;-81
2023/11/16 06:58:47;;;;;;;15.40;6.00;;;8.10;99.90;;;;;;5018179;28;20026;-81
2023/11/16 07:01:13;;;;;;;16.23;5.50;;;8.00;99.90;;;;;;5017450;28;20022;-81
2023/11/16 07:03:39;;;;;;;13.23;5.23;;;8.00;99.90;;;;;;5016651;28;20042;-81
2023/11/16 07:06:06;;;;;;;17.77;6.40;;;8.00;99.90;;;;;;5021865;28;20068;-81
2023/11/16 07:08:31;;;;;;;13.27;5.70;;;8.00;99.90;;;;;;5016863;28;20077;-81
2023/11/16 07:10:57;;;;;;;15.97;5.97;;;8.00;99.90;;;;;;5003955;28;20482;-81
2023/11/16 07:13:23;;;;;;;17.50;6.17;;;7.90;99.90;;;;;;5004722;28;20409;-81
2023/11/16 07:15:49;;;;;;;13.20;5.60;;;7.90;99.90;;;;;;5004061;28;20029;-80
2023/11/16 07:18:21;;;;;;;17.23;5.40;;;7.90;99.90;;;;;;5003339;28;20097;-80
2023/11/16 07:20:51;;;;;;;10.97;5.33;;;7.90;99.90;;;;;;5003821;28;20034;-81
2023/11/16 07:23:16;;;;;;;14.93;5.13;;;7.90;99.90;;;;;;5002212;28;20050;-81
2023/11/16 07:25:47;;;;;;;16.70;6.80;;;7.80;99.90;;;;;;5004867;28;20046;-81
2023/11/16 07:28:13;;;;;;;19.83;7.23;;;7.80;99.90;;;;;;5003052;28;20054;-79
2023/11/16 07:30:39;;;;;;;16.97;7.27;;;7.80;99.90;;;;;;5002093;28;20057;-82
2023/11/16 07:33:05;;;;;;;22.30;7.63;;;7.80;99.90;;;;;;5020553;28;20034;-81
2023/11/16 07:35:33;;;;;;;18.60;6.87;;;7.80;99.90;;;;;;5001703;28;20046;-82
2023/11/16 07:38:00;;;;;;;16.13;6.30;;;7.80;99.90;;;;;;5004225;28;20030;-81
2023/11/16 07:40:26;;;;;;;16.47;6.47;;;7.80;99.90;;;;;;5002323;28;20050;-80
2023/11/16 07:42:52;;;;;;;16.83;7.77;;;7.80;99.90;;;;;;5003334;28;20124;-80
2023/11/16 07:45:17;;;;;;;19.17;6.53;;;7.80;99.90;;;;;;5003667;28;20033;-80
2023/11/16 07:47:44;;;;;;;21.73;7.47;;;7.80;99.90;;;;;;5000804;28;20022;-81
2023/11/16 07:50:12;;;;;;;17.20;6.93;;;7.90;99.90;;;;;;5019952;28;20034;-81
2023/11/16 07:52:47;;;;;;;16.07;6.90;;;7.90;99.90;;;;;;5001654;28;20105;-81
2023/11/16 07:55:18;;;;;;;15.17;6.23;;;8.00;99.90;;;;;;5003700;28;20027;-81
2023/11/16 07:57:49;;;;;;;20.00;7.00;;;8.00;99.90;;;;;;5002404;28;20042;-81
2023/11/16 08:00:26;;;;;;;20.53;7.47;;;8.00;99.90;;;;;;5018866;28;20030;-82
2023/11/16 08:05:42;;;;;;;28.60;10.10;;;8.10;99.90;;;;;;5003149;28;20045;-82
2023/11/16 08:08:11;;;;;;;28.30;10.23;;;8.10;99.90;;;;;;5003330;28;20033;-82
2023/11/16 08:10:45;;;;;;;38.30;10.63;;;8.20;99.90;;;;;;5002373;28;20037;-81
2023/11/16 08:13:11;;;;;;;41.60;12.20;;;8.20;99.90;;;;;;5002253;28;20049;-80
2023/11/16 08:15:40;;;;;;;50.83;11.70;;;8.30;99.90;;;;;;5003185;28;20289;-79
2023/11/16 08:18:10;;;;;;;36.33;10.07;;;8.30;99.90;;;;;;5000647;28;20022;-79
2023/11/16 08:20:36;;;;;;;28.03;9.43;;;8.40;99.90;;;;;;5003204;28;20014;-80
2023/11/16 08:23:06;;;;;;;36.83;9.40;;;8.50;99.90;;;;;;5001028;28;20490;-80
2023/11/16 08:25:33;;;;;;;36.53;9.93;;;8.50;99.90;;;;;;5002435;28;20122;-80
2023/11/16 08:28:00;;;;;;;28.83;10.70;;;8.50;99.90;;;;;;5002211;28;20041;-79
2023/11/16 08:30:26;;;;;;;21.90;8.87;;;8.50;99.90;;;;;;5001536;28;20378;-80
2023/11/16 08:32:53;;;;;;;19.03;9.07;;;8.60;99.90;;;;;;5003139;28;20019;-80
2023/11/16 08:35:23;;;;;;;20.93;9.63;;;8.60;99.90;;;;;;5000655;28;20632;-80
2023/11/16 08:37:49;;;;;;;21.03;9.63;;;8.60;99.90;;;;;;5002870;28;20057;-80
2023/11/16 08:40:18;;;;;;;22.13;10.13;;;8.70;99.90;;;;;;5000852;28;20026;-80
2023/11/16 08:42:45;;;;;;;18.80;9.93;;;8.70;99.90;;;;;;5002279;28;20038;-80
2023/11/16 08:45:20;;;;;;;18.47;9.63;;;8.80;99.90;;;;;;5003711;28;20482;-79
2023/11/16 08:47:52;;;;;;;18.27;9.93;;;8.80;99.90;;;;;;5000523;28;20022;-80
2023/11/16 08:50:19;;;;;;;20.17;9.37;;;8.90;99.90;;;;;;5002609;28;20034;-80
2023/11/16 08:52:48;;;;;;;18.37;10.13;;;8.90;99.90;;;;;;5000205;28;20030;-80
2023/11/16 08:55:21;;;;;;;18.43;9.00;;;9.00;99.90;;;;;;5002835;28;20228;-80
2023/11/16 08:57:48;;;;;;;23.20;10.47;;;9.00;99.90;;;;;;5003103;28;20014;-79
2023/11/16 09:03:09;;;;;;;26.73;10.13;;;9.10;99.90;;;;;;5004029;28;20049;-81
2023/11/16 09:05:37;;;;;;;21.93;10.37;;;9.10;99.90;;;;;;5016504;28;20030;-80
2023/11/16 09:08:03;;;;;;;20.73;10.13;;;9.20;99.90;;;;;;5002434;28;20026;-80
2023/11/16 09:10:31;;;;;;;22.90;10.87;;;9.20;99.90;;;;;;5001137;28;20030;-80
2023/11/16 09:13:00;;;;;;;17.85;10.52;;;9.30;99.90;;;;;;5001505;28;20030;-80
2023/11/16 09:15:26;;;;;;;25.27;10.00;;;9.30;99.90;;;;;;5001510;28;20019;-80
2023/11/16 09:17:52;;;;;;;21.50;11.13;;;9.30;99.90;;;;;;5000205;28;20029;-80
2023/11/16 09:20:19;;;;;;;20.33;9.90;;;9.30;99.90;;;;;;5002513;28;20022;-80
2023/11/16 09:22:48;;;;;;;32.83;9.93;;;9.30;99.90;;;;;;5000124;28;20038;-79
2023/11/16 09:25:15;;;;;;;17.70;9.83;;;9.40;99.90;;;;;;5001780;28;20088;-81
2023/11/16 09:27:50;;;;;;;17.53;10.00;;;9.40;99.90;;;;;;5002018;28;20030;-80
2023/11/16 09:30:22;;;;;;;21.67;10.43;;;9.40;99.90;;;;;;5000788;28;20022;-80
2023/11/16 09:32:52;;;;;;;22.73;10.30;;;9.40;99.90;;;;;;5002133;28;20030;-80
2023/11/16 09:35:21;;;;;;;18.93;10.53;;;9.50;99.90;;;;;;5001156;28;20037;-80
2023/11/16 09:37:55;;;;;;;20.63;10.47;;;9.50;99.90;;;;;;5001876;28;20035;-80
2023/11/16 09:40:24;;;;;;;13.82;7.97;;;9.50;99.90;;;;;;5001854;28;20127;-80
2023/11/16 09:42:56;;;;;;;24.07;10.30;;;9.60;99.90;;;;;;5002530;28;20045;-80
2023/11/16 09:45:29;;;;;;;21.50;10.87;;;9.60;99.90;;;;;;5018056;28;20094;-80
2023/11/16 09:48:10;;;;;;;18.43;10.43;;;9.60;99.90;;;;;;4999942;28;20050;-81
2023/11/16 09:50:42;;;;;;;21.97;9.83;;;9.60;99.90;;;;;;5002201;28;20026;-80
2023/11/16 09:53:14;;;;;;;16.55;9.50;;;9.60;99.90;;;;;;4999984;28;20027;-80
2023/11/16 09:55:44;;;;;;;19.73;9.83;;;9.70;99.90;;;;;;5002599;28;20026;-81
2023/11/16 09:58:17;;;;;;;19.65;10.13;;;9.60;99.90;;;;;;5001774;28;20046;-80
2023/11/16 10:00:48;;;;;;;21.33;10.60;;;9.70;99.90;;;;;;5016486;28;20413;-80
2023/11/16 10:03:21;;;;;;;17.47;10.00;;;9.70;99.90;;;;;;5003227;28;20035;-80
2023/11/16 10:05:47;;;;;;;19.23;11.00;;;9.70;99.90;;;;;;4999610;28;20027;-80
2023/11/16 10:08:15;;;;;;;18.87;10.63;;;9.70;99.90;;;;;;5002836;28;20034;-80
2023/11/16 10:10:55;;;;;;;17.05;10.95;;;9.70;99.90;;;;;;5002126;28;20033;-80
2023/11/16 10:13:25;;;;;;;18.63;10.63;;;9.80;99.90;;;;;;5003846;28;20019;-80
2023/11/16 10:16:11;;;;;;;19.53;11.93;;;9.80;99.90;;;;;;5006857;28;20022;-80
2023/11/16 10:18:38;;;;;;;20.23;11.17;;;9.90;99.90;;;;;;5003334;28;20049;-80
2023/11/16 10:21:04;;;;;;;18.52;11.73;;;9.90;99.90;;;;;;5005514;28;20090;-80
2023/11/16 10:23:31;;;;;;;20.47;11.60;;;9.90;99.90;;;;;;5004111;28;20045;-80
2023/11/16 10:25:59;;;;;;;21.60;12.67;;;9.90;99.90;;;;;;5003911;28;20038;-80
2023/11/16 10:28:25;;;;;;;20.48;12.48;;;9.90;99.90;;;;;;5006066;28;20022;-80
2023/11/16 10:30:58;;;;;;;24.70;12.15;;;9.90;99.90;;;;;;5003131;28;20061;-80
2023/11/16 10:33:25;;;;;;;23.33;12.68;;;9.90;99.90;;;;;;5005389;28;20199;-81
2023/11/16 10:35:59;;;;;;;25.17;12.02;;;9.90;99.90;;;;;;5019227;28;20027;-81
2023/11/16 10:38:27;;;;;;;23.75;12.93;;;9.90;99.90;;;;;;5021291;28;20061;-81
2023/11/16 10:40:53;;;;;;;20.85;13.10;;;10.00;99.90;;;;;;5004530;28;20033;-80
2023/11/16 10:43:26;;;;;;;20.52;13.05;;;10.00;99.90;;;;;;5004610;28;20050;-81
2023/11/16 10:46:05;;;;;;;22.00;12.65;;;10.00;99.90;;;;;;5006401;28;20050;-81
2023/11/16 10:48:31;;;;;;;24.67;13.55;;;10.00;99.90;;;;;;5019290;28;20434;-81
2023/11/16 10:51:00;;;;;;;21.42;12.70;;;10.00;99.90;;;;;;5021241;28;20054;-81
2023/11/16 10:53:32;;;;;;;23.63;13.25;;;10.00;99.90;;;;;;5003764;28;20387;-81
2023/11/16 10:55:58;;;;;;;22.95;13.77;;;10.00;99.90;;;;;;5003628;28;20027;-82
2023/11/16 10:58:29;;;;;;;25.83;12.48;;;10.00;99.90;;;;;;5004874;28;20018;-81
2023/11/16 11:01:07;;;;;;;20.65;12.55;;;10.00;99.90;;;;;;5002905;28;20022;-81
2023/11/16 11:03:35;;;;;;;19.00;12.07;;;10.00;99.90;;;;;;5005001;28;20066;-81
2023/11/16 11:06:04;;;;;;;22.85;13.05;;;10.00;99.90;;;;;;5003179;28;20033;-81
2023/11/16 11:08:42;;;;;;;22.63;11.60;;;10.00;99.90;;;;;;5003891;28;20026;-81
2023/11/16 11:11:10;;;;;;;21.88;11.70;;;10.10;99.90;;;;;;5004551;28;20019;-81
2023/11/16 11:13:39;;;;;;;23.88;11.98;;;10.00;99.90;;;;;;5003925;28;20022;-81
2023/11/16 11:16:10;;;;;;;21.63;13.13;;;10.00;99.90;;;;;;5005897;28;20053;-81
2023/11/16 11:18:48;;;;;;;24.38;13.40;;;10.00;99.90;;;;;;5002574;28;20525;-81
2023/11/16 11:21:16;;;;;;;22.63;12.65;;;10.00;99.90;;;;;;5003939;28;20015;-81
2023/11/16 11:23:42;;;;;;;21.90;12.27;;;10.10;99.90;;;;;;5004034;28;20030;-81
2023/11/16 11:26:09;;;;;;;25.60;12.20;;;10.00;99.90;;;;;;5003666;28;20573;-81
2023/11/16 11:28:38;;;;;;;18.70;11.48;;;10.00;99.90;;;;;;5003827;28;20074;-80
2023/11/16 11:31:10;;;;;;;25.08;10.85;;;10.00;99.90;;;;;;5001882;28;20026;-81
2023/11/16 11:33:43;;;;;;;21.27;10.98;;;10.00;99.90;;;;;;5005616;28;20113;-81
2023/11/16 11:36:20;;;;;;;18.55;9.85;;;10.00;99.90;;;;;;5002823;28;20035;-81
2023/11/16 11:38:53;;;;;;;23.88;10.50;;;10.00;99.90;;;;;;5002948;28;20030;-81
2023/11/16 11:41:19;;;;;;;16.88;10.02;;;10.00;99.90;;;;;;5005172;28;20022;-80
2023/11/16 11:43:45;;;;;;;16.20;8.88;;;10.00;99.90;;;;;;5001905;28;20040;-81
2023/11/16 11:46:18;;;;;;;13.82;7.82;;;10.10;99.90;;;;;;5003547;28;20079;-81
2023/11/16 11:48:48;;;;;;;15.18;8.10;;;10.10;99.90;;;;;;5002115;28;20030;-81
2023/11/16 11:51:16;;;;;;;15.52;7.80;;;10.10;99.90;;;;;;5020027;28;20509;-80
2023/11/16 11:53:45;;;;;;;15.15;7.80;;;10.10;99.90;;;;;;5003510;28;20026;-80
2023/11/16 11:56:12;;;;;;;11.70;6.95;;;10.20;99.90;;;;;;5003012;28;20073;-81
2023/11/16 11:58:41;;;;;;;12.07;6.50;;;10.20;99.90;;;;;;5003671;28;20030;-81
2023/11/16 12:01:11;;;;;;;13.13;6.28;;;10.20;99.90;;;;;;5001338;28;20030;-80
2023/11/16 12:04:04;;;;;;;13.50;6.63;;;10.20;99.90;;;;;;5003496;28;20042;-80
2023/11/16 12:06:30;;;;;;;12.80;6.25;;;10.10;99.90;;;;;;5002803;28;20033;-81
2023/11/16 12:08:55;;;;;;;11.07;5.55;;;10.10;99.90;;;;;;5017835;28;20122;-81
2023/11/16 12:11:25;;;;;;;10.07;5.55;;;10.10;99.90;;;;;;5003509;28;20022;-81
2023/11/16 12:13:55;;;;;;;11.25;5.30;;;10.10;99.90;;;;;;5017588;28;20053;-81
2023/11/16 12:16:25;;;;;;;13.18;6.32;;;10.10;99.90;;;;;;5003377;28;20026;-81
2023/11/16 12:18:54;;;;;;;12.80;6.03;;;10.00;99.90;;;;;;5002801;28;20069;-81
2023/11/16 12:21:22;;;;;;;13.07;5.83;;;10.00;99.90;;;;;;5002936;28;20544;-81
2023/11/16 12:23:55;;;;;;;12.77;5.40;;;10.00;99.90;;;;;;5002717;28;20465;-80
2023/11/16 12:26:28;;;;;;;11.65;6.78;;;10.00;99.90;;;;;;5001062;28;20050;-81
2023/11/16 12:28:55;;;;;;;11.60;6.03;;;10.00;99.90;;;;;;5002570;28;20086;-81
2023/11/16 12:31:21;;;;;;;13.17;6.80;;;10.00;99.90;;;;;;5000806;28;20040;-81
2023/11/16 12:33:51;;;;;;;13.30;6.68;;;9.90;99.90;;;;;;5019428;28;20026;-81
2023/11/16 12:36:21;;;;;;;12.70;7.40;;;10.00;99.90;;;;;;5002210;28;20022;-81
2023/11/16 12:38:48;;;;;;;15.47;8.00;;;10.00;99.90;;;;;;5002877;28;20138;-81
2023/11/16 12:41:15;;;;;;;19.02;9.50;;;10.00;99.90;;;;;;5002994;28;20030;-80
2023/11/16 12:43:42;;;;;;;19.70;9.07;;;9.90;99.90;;;;;;5000514;28;20037;-81
2023/11/16 12:46:07;;;;;;;17.00;9.03;;;10.00;99.90;;;;;;5003024;28;20026;-80
2023/11/16 12:48:33;;;;;;;19.10;9.43;;;10.00;99.90;;;;;;5000521;28;20479;-81
2023/11/16 12:50:59;;;;;;;22.77;10.47;;;10.00;99.90;;;;;;5002812;28;20018;-80
2023/11/16 12:53:25;;;;;;;22.30;11.23;;;10.00;99.90;;;;;;5001353;28;20030;-80